createdAt,value
2019-05-13T00:01:23.873Z,99776.30
2019-05-13T00:03:54.161Z,99778.91
2019-05-13T00:06:23.903Z,99774.86
2019-05-13T00:08:54.359Z,99768.70
2019-05-13T00:11:24.043Z,99770.66
2019-05-13T00:13:53.836Z,99780.03
2019-05-13T00:16:23.544Z,99778.16
2019-05-13T00:18:53.451Z,99775.43
2019-05-13T00:21:23.263Z,99776.05
2019-05-13T00:23:53.746Z,99768.92
2019-05-13T00:26:24.474Z,99776.89
2019-05-13T00:28:53.933Z,99777.73
2019-05-13T00:31:24.119Z,99773.97
2019-05-13T00:33:53.597Z,99773.97
2019-05-13T00:36:24.326Z,99772.93
2019-05-13T00:38:53.750Z,99771.05
2019-05-13T00:41:24.468Z,99770.02
2019-05-13T00:43:53.903Z,99777.36
2019-05-13T00:46:23.678Z,99779.36
2019-05-13T00:48:54.051Z,99782.14
2019-05-13T00:51:24.405Z,99782.83
2019-05-13T00:53:53.898Z,99789.14
2019-05-13T00:56:23.762Z,99783.96
2019-05-13T00:58:54.109Z,99782.02
2019-05-13T01:01:24.654Z,99787.52
2019-05-13T01:03:53.908Z,99787.83
2019-05-13T01:06:24.648Z,99784.33
2019-05-13T01:08:54.156Z,99795.02
2019-05-13T01:11:25.884Z,99784.98
2019-05-13T01:13:55.309Z,99792.66
2019-05-13T01:16:24.615Z,99787.35
2019-05-13T01:18:53.940Z,99789.32
2019-05-13T01:21:23.859Z,99782.31
2019-05-13T01:23:54.367Z,99782.63
2019-05-13T01:26:23.774Z,99787.09
2019-05-13T01:28:53.551Z,99785.68
2019-05-13T01:31:23.849Z,99781.70
2019-05-13T01:33:53.793Z,99786.16
2019-05-13T01:36:23.528Z,99778.27
2019-05-13T01:38:54.108Z,99782.94
2019-05-13T01:41:24.510Z,99787.25
2019-05-13T01:43:54.411Z,99789.48
2019-05-13T01:46:24.184Z,99783.22
2019-05-13T01:48:54.373Z,99788.17
2019-05-13T01:51:24.773Z,99793.67
2019-05-13T01:53:54.051Z,99791.86
2019-05-13T01:56:23.647Z,99790.04
2019-05-13T01:58:54.118Z,99787.92
2019-05-13T02:01:24.189Z,99798.25
2019-05-13T02:03:54.479Z,99805.21
2019-05-13T02:06:25.222Z,99800.42
2019-05-13T02:08:54.726Z,99795.10
2019-05-13T02:11:24.019Z,99794.10
2019-05-13T02:13:54.098Z,99797.94
2019-05-13T02:16:24.411Z,99799.81
2019-05-13T02:18:53.785Z,99792.86
2019-05-13T02:21:24.198Z,99801.46
2019-05-13T02:23:53.780Z,99792.53
2019-05-13T02:26:24.052Z,99799.69
2019-05-13T02:28:54.094Z,99804.41
2019-05-13T02:31:39.186Z,99806.02
2019-05-13T02:34:02.493Z,99803.92
2019-05-13T02:36:32.926Z,99805.82
2019-05-13T02:39:04.424Z,99806.05
2019-05-13T02:41:34.277Z,99811.53
2019-05-13T02:44:04.104Z,99810.44
2019-05-13T02:46:34.204Z,99817.70
2019-05-13T02:49:05.002Z,99819.61
2019-05-13T02:51:34.291Z,99821.57
2019-05-13T02:54:03.896Z,99805.30
2019-05-13T02:56:33.331Z,99816.97
2019-05-13T02:59:04.050Z,99819.47
2019-05-13T03:01:34.300Z,99817.84
2019-05-13T03:04:03.645Z,99808.91
2019-05-13T03:06:34.394Z,99818.16
2019-05-13T03:09:07.071Z,99813.02
2019-05-13T03:11:36.376Z,99821.14
2019-05-13T03:14:06.577Z,99826.03
2019-05-13T03:16:46.207Z,99831.45
2019-05-13T03:19:15.475Z,99833.34
2019-05-13T03:21:44.831Z,99834.23
2019-05-13T03:24:14.089Z,99840.48
2019-05-13T03:26:43.376Z,99843.98
2019-05-13T03:29:13.340Z,99853.47
2019-05-13T03:31:46.413Z,99849.97
2019-05-13T03:34:16.058Z,99851.59
2019-05-13T03:36:46.532Z,99848.61
2019-05-13T03:39:16.838Z,99854.05
2019-05-13T03:41:52.582Z,99846.46
2019-05-13T03:44:23.551Z,99857.56
2019-05-13T03:46:56.328Z,99859.19
2019-05-13T03:49:32.353Z,99858.35
2019-05-13T03:52:03.009Z,99865.67
2019-05-13T03:54:32.941Z,99864.04
2019-05-13T03:57:03.439Z,99866.48
2019-05-13T03:59:33.761Z,99870.54
2019-05-13T04:02:03.191Z,99866.75
2019-05-13T04:04:32.800Z,99858.61
2019-05-13T04:07:03.002Z,99859.98
2019-05-13T04:09:36.555Z,99862.41
2019-05-13T04:12:03.832Z,99862.17
2019-05-13T04:14:33.813Z,99868.94
2019-05-13T04:17:04.576Z,99871.09
2019-05-13T04:19:34.343Z,99874.89
2019-05-13T04:22:04.207Z,99870.83
2019-05-13T04:24:33.950Z,99880.30
2019-05-13T04:27:04.681Z,99886.55
2019-05-13T04:29:33.976Z,99889.51
2019-05-13T04:32:03.360Z,99887.34
2019-05-13T04:34:33.896Z,99895.42
2019-05-13T04:37:03.637Z,99893.55
2019-05-13T04:39:46.012Z,99907.92
2019-05-13T04:42:04.524Z,99908.46
2019-05-13T04:44:33.747Z,99909.81
2019-05-13T04:47:04.012Z,99913.34
2019-05-13T04:49:33.591Z,99911.72
2019-05-13T04:52:03.767Z,99902.77
2019-05-13T04:54:33.980Z,99910.06
2019-05-13T04:57:03.604Z,99911.14
2019-05-13T04:59:34.802Z,99906.53
2019-05-13T05:02:48.969Z,99911.14
2019-05-13T05:05:35.407Z,99907.61
2019-05-13T05:08:36.853Z,99901.11
2019-05-13T05:11:24.692Z,99907.02
2019-05-13T05:14:32.613Z,99912.41
2019-05-13T05:17:42.994Z,99910.69
2019-05-13T05:20:23.431Z,99920.98
2019-05-13T05:23:21.681Z,99911.78
2019-05-13T05:26:16.838Z,99909.86
2019-05-13T05:29:25.928Z,99919.83
2019-05-13T05:32:39.189Z,99921.17
2019-05-13T05:35:42.597Z,99916.55
2019-05-13T05:38:26.256Z,99919.73
2019-05-13T05:41:01.571Z,99920.72
2019-05-13T05:43:34.302Z,99924.80
2019-05-13T05:46:04.551Z,99927.47
2019-05-13T05:48:36.006Z,99931.75
2019-05-13T05:51:06.260Z,99936.03
2019-05-13T05:53:38.986Z,99926.14
2019-05-13T05:56:11.424Z,99929.72
2019-05-13T05:59:02.615Z,99932.19
2019-05-13T06:01:32.765Z,99933.39
2019-05-13T06:04:01.701Z,99933.91
2019-05-13T06:06:32.945Z,99940.37
2019-05-13T06:09:02.540Z,99943.86
2019-05-13T06:11:33.552Z,99944.52
2019-05-13T06:14:03.529Z,99944.87
2019-05-13T06:16:33.023Z,99939.69
2019-05-13T06:19:02.304Z,99944.14
2019-05-13T06:21:32.235Z,99943.81
2019-05-13T06:24:02.714Z,99936.91
2019-05-13T06:26:33.713Z,99934.78
2019-05-13T06:29:02.994Z,99931.02
2019-05-13T06:31:32.454Z,99929.33
2019-05-13T06:34:02.180Z,99920.70
2019-05-13T06:36:31.892Z,99927.67
2019-05-13T06:39:02.736Z,99925.98
2019-05-13T06:41:33.827Z,99921.59
2019-05-13T06:44:03.211Z,99920.55
2019-05-13T06:46:32.541Z,99920.30
2019-05-13T06:49:02.895Z,99915.80
2019-05-13T06:51:32.369Z,99918.31
2019-05-13T06:54:02.312Z,99925.66
2019-05-13T06:56:32.369Z,99922.03
2019-05-13T06:59:01.726Z,99920.83
2019-05-13T07:01:32.274Z,99929.52
2019-05-13T07:04:02.555Z,99926.45
2019-05-13T07:06:32.438Z,99932.74
2019-05-13T07:09:01.905Z,99929.94
2019-05-13T07:11:31.546Z,99924.70
2019-05-13T07:14:02.434Z,99916.69
2019-05-13T07:16:31.927Z,99919.38
2019-05-13T07:19:02.629Z,99930.42
2019-05-13T07:21:32.435Z,99928.47
2019-05-13T07:24:02.406Z,99926.66
2019-05-13T07:26:31.825Z,99926.94
2019-05-13T07:29:03.677Z,99927.50
2019-05-13T07:31:32.503Z,99923.73
2019-05-13T07:34:02.405Z,99918.98
2019-05-13T07:36:31.873Z,99922.14
2019-05-13T07:39:02.283Z,99919.77
2019-05-13T07:41:38.951Z,99918.39
2019-05-13T07:44:02.744Z,99919.20
2019-05-13T07:46:32.413Z,99918.44
2019-05-13T07:49:02.258Z,99908.70
2019-05-13T07:51:32.082Z,99912.48
2019-05-13T07:54:02.384Z,99910.79
2019-05-13T07:56:32.568Z,99908.45
2019-05-13T07:59:02.079Z,99909.67
2019-05-13T08:01:34.064Z,99909.70
2019-05-13T08:04:03.419Z,99911.59
2019-05-13T08:06:32.733Z,99910.79
2019-05-13T08:09:02.093Z,99910.16
2019-05-13T08:11:35.377Z,99910.72
2019-05-13T08:14:02.346Z,99906.06
2019-05-13T08:16:32.379Z,99910.50
2019-05-13T08:19:01.977Z,99919.55
2019-05-13T08:21:32.255Z,99909.03
2019-05-13T08:24:02.713Z,99906.09
2019-05-13T08:26:32.531Z,99899.60
2019-05-13T08:29:05.935Z,99914.38
2019-05-13T08:31:34.402Z,99921.27
2019-05-13T08:34:03.902Z,99908.27
2019-05-13T08:36:33.162Z,99910.39
2019-05-13T08:39:02.869Z,99904.73
2019-05-13T08:41:32.451Z,99904.47
2019-05-13T08:44:01.956Z,99899.16
2019-05-13T08:46:32.520Z,99885.08
2019-05-13T08:49:03.799Z,99876.94
2019-05-13T08:51:34.778Z,99898.74
2019-05-13T08:54:03.813Z,99886.45
2019-05-13T08:56:33.267Z,99874.78
2019-05-13T08:59:02.612Z,99884.06
2019-05-13T09:01:32.086Z,99886.89
2019-05-13T09:04:02.590Z,99887.19
2019-05-13T09:06:32.055Z,99892.08
2019-05-13T09:09:02.409Z,99890.14
2019-05-13T09:11:31.926Z,99872.37
2019-05-13T09:14:02.241Z,99881.31
2019-05-13T09:16:32.101Z,99883.75
2019-05-13T09:19:03.754Z,99894.21
2019-05-13T09:21:32.546Z,99890.89
2019-05-13T09:24:02.335Z,99884.05
2019-05-13T09:26:31.840Z,99879.20
2019-05-13T09:29:02.360Z,99885.91
2019-05-13T09:31:32.493Z,99885.42
2019-05-13T09:34:01.973Z,99884.83
2019-05-13T09:36:32.397Z,99880.55
2019-05-13T09:39:02.168Z,99883.24
2019-05-13T09:41:33.094Z,99877.51
2019-05-13T09:44:02.601Z,99872.45
2019-05-13T09:46:32.989Z,99858.47
2019-05-13T09:49:12.798Z,99865.28
2019-05-13T09:51:33.254Z,99869.14
2019-05-13T09:54:02.582Z,99865.25
2019-05-13T09:56:32.111Z,99858.05
2019-05-13T09:59:01.923Z,99879.52
2019-05-13T10:01:32.112Z,99874.02
2019-05-13T10:04:04.503Z,99869.92
2019-05-13T10:06:33.728Z,99870.92
2019-05-13T10:09:03.088Z,99864.42
2019-05-13T10:11:33.600Z,99874.08
2019-05-13T10:14:02.901Z,99860.96
2019-05-13T10:16:32.183Z,99874.88
2019-05-13T10:19:02.556Z,99879.11
2019-05-13T10:21:32.829Z,99873.61
2019-05-13T10:24:02.323Z,99870.63
2019-05-13T10:26:32.366Z,99867.28
2019-05-13T10:29:02.085Z,99857.47
2019-05-13T10:31:31.696Z,99857.98
2019-05-13T10:34:02.240Z,99844.51
2019-05-13T10:36:32.273Z,99855.22
2019-05-13T10:39:01.602Z,99865.11
2019-05-13T10:41:33.174Z,99843.74
2019-05-13T10:44:03.816Z,99842.83
2019-05-13T10:46:33.118Z,99854.72
2019-05-13T10:49:02.391Z,99846.67
2019-05-13T10:51:32.683Z,99842.58
2019-05-13T10:54:02.117Z,99852.25
2019-05-13T10:56:32.830Z,99840.33
2019-05-13T10:59:03.295Z,99851.54
2019-05-13T11:01:32.907Z,99835.75
2019-05-13T11:04:02.782Z,99828.39
2019-05-13T11:06:32.630Z,99838.20
2019-05-13T11:09:02.736Z,99835.91
2019-05-13T11:11:33.206Z,99834.53
2019-05-13T11:14:10.649Z,99843.25
2019-05-13T11:16:33.888Z,99837.31
2019-05-13T11:19:03.189Z,99831.67
2019-05-13T11:21:32.446Z,99832.48
2019-05-13T11:24:03.277Z,99826.30
2019-05-13T11:26:36.140Z,99815.02
2019-05-13T11:29:03.917Z,99824.22
2019-05-13T11:31:33.184Z,99817.22
2019-05-13T11:34:02.518Z,99809.29
2019-05-13T11:36:33.317Z,99798.71
2019-05-13T11:39:04.079Z,99803.27
2019-05-13T11:41:33.352Z,99806.32
2019-05-13T11:44:12.817Z,99792.70
2019-05-13T11:46:33.639Z,99804.19
2019-05-13T11:49:02.992Z,99803.11
2019-05-13T11:51:32.470Z,99803.78
2019-05-13T11:54:03.578Z,99812.73
2019-05-13T11:56:33.700Z,99799.18
2019-05-13T11:59:04.335Z,99793.44
2019-05-13T12:01:33.949Z,99782.63
2019-05-13T12:04:03.235Z,99782.69
2019-05-13T12:06:33.813Z,99791.03
2019-05-13T12:09:06.258Z,99777.39
2019-05-13T12:11:35.635Z,99772.55
2019-05-13T12:14:04.954Z,99787.68
2019-05-13T12:16:35.019Z,99769.34
2019-05-13T12:19:04.629Z,99783.98
2019-05-13T12:21:40.674Z,99765.31
2019-05-13T12:26:36.158Z,99772.77
2019-05-13T12:29:05.459Z,99767.23
2019-05-13T12:31:34.739Z,99768.16
2019-05-13T12:34:04.062Z,99763.38
2019-05-13T12:36:33.804Z,99761.64
2019-05-13T12:39:04.869Z,99762.45
2019-05-13T12:41:34.149Z,99756.48
2019-05-13T12:44:03.679Z,99762.16
2019-05-13T12:46:32.947Z,99758.91
2019-05-13T12:49:03.938Z,99750.95
2019-05-13T12:51:33.452Z,99748.88
2019-05-13T12:54:03.738Z,99758.98
2019-05-13T12:56:33.558Z,99758.17
2019-05-13T12:59:03.296Z,99750.17
2019-05-13T13:01:32.683Z,99743.13
2019-05-13T13:04:02.341Z,99751.83
2019-05-13T13:06:40.322Z,99754.13
2019-05-13T13:09:03.168Z,99734.81
2019-05-13T13:11:32.624Z,99736.75
2019-05-13T13:14:05.716Z,99738.30
2019-05-13T13:19:03.989Z,99726.83
2019-05-13T13:21:36.904Z,99726.45
2019-05-13T13:24:04.902Z,99723.08
2019-05-13T13:26:34.213Z,99712.30
2019-05-13T13:29:04.604Z,99716.52
2019-05-13T13:31:33.944Z,99719.77
2019-05-13T13:34:12.169Z,99720.66
2019-05-13T13:36:34.422Z,99725.80
2019-05-13T13:39:05.587Z,99717.45
2019-05-13T13:41:35.982Z,99717.82
2019-05-13T13:44:05.994Z,99731.94
2019-05-13T13:46:43.129Z,99727.50
2019-05-13T13:49:07.452Z,99710.94
2019-05-13T13:51:38.226Z,99707.56
2019-05-13T13:54:07.500Z,99695.08
2019-05-13T13:56:36.847Z,99682.97
2019-05-13T13:59:06.131Z,99703.44
2019-05-13T14:01:35.430Z,99700.47
2019-05-13T14:04:04.691Z,99704.72
2019-05-13T14:07:02.911Z,99771.13
2019-05-13T14:07:09.314Z,99731.45
2019-05-13T14:09:07.754Z,99690.13
2019-05-13T14:11:37.055Z,99687.41
2019-05-13T14:14:06.331Z,99688.27
2019-05-13T14:16:35.637Z,99696.84
2019-05-13T14:19:05.314Z,99696.75
2019-05-13T14:21:34.614Z,99693.80
2019-05-13T14:24:03.946Z,99691.00
2019-05-13T14:26:33.342Z,99684.03
2019-05-13T14:29:02.971Z,99682.22
2019-05-13T14:31:34.667Z,99673.34
2019-05-13T14:34:04.048Z,99674.30
2019-05-13T14:36:33.320Z,99671.29
2019-05-13T14:39:02.933Z,99679.32
2019-05-13T14:41:32.283Z,99671.73
2019-05-13T14:44:03.774Z,99672.67
2019-05-13T14:46:46.379Z,99670.57
2019-05-13T14:49:03.642Z,99670.04
2019-05-13T14:51:32.997Z,99672.67
2019-05-13T14:54:02.792Z,99675.19
2019-05-13T14:56:32.486Z,99680.01
2019-05-13T14:59:02.751Z,99678.17
2019-05-13T15:01:33.421Z,99679.11
2019-05-13T15:04:03.019Z,99671.77
2019-05-13T15:06:32.898Z,99674.13
2019-05-13T15:09:02.198Z,99676.37
2019-05-13T15:11:33.170Z,99674.22
2019-05-13T15:14:03.043Z,99680.57
2019-05-13T15:16:32.291Z,99675.36
2019-05-13T15:19:01.937Z,99678.52
2019-05-13T15:21:32.186Z,99669.77
2019-05-13T15:24:02.248Z,99678.09
2019-05-13T15:26:31.750Z,99666.35
2019-05-13T15:29:04.885Z,99662.46
2019-05-13T15:31:36.252Z,99667.68
2019-05-13T15:34:05.879Z,99661.34
2019-05-13T15:36:35.261Z,99658.39
2019-05-13T15:39:06.285Z,99662.98
2019-05-13T15:41:35.830Z,99661.58
2019-05-13T15:44:05.210Z,99661.58
2019-05-13T15:46:34.473Z,99659.77
2019-05-13T15:49:03.776Z,99654.91
2019-05-13T15:51:33.052Z,99656.26
2019-05-13T15:54:02.787Z,99651.40
2019-05-13T15:56:32.489Z,99652.23
2019-05-13T15:59:03.482Z,99653.67
2019-05-13T16:01:32.775Z,99649.03
2019-05-13T16:04:02.882Z,99652.20
2019-05-13T16:06:32.342Z,99651.05
2019-05-13T16:09:02.768Z,99650.14
2019-05-13T16:11:33.498Z,99659.22
2019-05-13T16:14:03.867Z,99652.89
2019-05-13T16:16:33.314Z,99656.96
2019-05-13T16:19:02.591Z,99646.84
2019-05-13T16:21:32.154Z,99653.54
2019-05-13T16:24:02.647Z,99647.67
2019-05-13T16:26:32.176Z,99654.88
2019-05-13T16:29:02.294Z,99650.79
2019-05-13T16:31:31.986Z,99647.98
2019-05-13T16:34:01.827Z,99653.13
2019-05-13T16:36:31.453Z,99650.48
2019-05-13T16:39:05.754Z,99653.13
2019-05-13T16:41:36.096Z,99654.52
2019-05-13T16:44:05.738Z,99655.82
2019-05-13T16:46:35.032Z,99650.69
2019-05-13T16:49:04.404Z,99660.70
2019-05-13T16:51:33.689Z,99651.48
2019-05-13T16:54:02.952Z,99648.65
2019-05-13T16:56:33.470Z,99653.07
2019-05-13T16:59:02.956Z,99662.28
2019-05-13T17:01:32.229Z,99660.09
2019-05-13T17:04:01.994Z,99664.27
2019-05-13T17:06:32.180Z,99663.92
2019-05-13T17:09:01.985Z,99667.87
2019-05-13T17:11:32.125Z,99673.59
2019-05-13T17:14:02.338Z,99668.42
2019-05-13T17:16:32.606Z,99666.80
2019-05-13T17:19:01.901Z,99667.30
2019-05-13T17:21:31.640Z,99680.19
2019-05-13T17:24:01.677Z,99684.66
2019-05-13T17:26:32.700Z,99681.74
2019-05-13T17:29:02.162Z,99681.17
2019-05-13T17:31:32.686Z,99691.14
2019-05-13T17:34:11.847Z,99697.91
2019-05-13T17:36:41.911Z,99694.56
2019-05-13T17:39:12.588Z,99692.70
2019-05-13T17:41:42.140Z,99703.35
2019-05-13T17:44:11.823Z,99710.32
2019-05-13T17:46:41.887Z,99703.70
2019-05-13T17:49:11.975Z,99706.38
2019-05-13T17:51:42.608Z,99720.73
2019-05-13T17:54:12.121Z,99721.09
2019-05-13T17:56:41.437Z,99720.45
2019-05-13T17:59:11.618Z,99716.17
2019-05-13T18:01:41.457Z,99715.37
2019-05-13T18:04:11.828Z,99716.66
2019-05-13T18:06:41.830Z,99717.50
2019-05-13T18:09:12.313Z,99727.90
2019-05-13T18:11:41.895Z,99719.67
2019-05-13T18:14:11.623Z,99733.13
2019-05-13T18:16:41.933Z,99725.73
2019-05-13T18:19:12.106Z,99725.98
2019-05-13T18:21:42.395Z,99727.83
2019-05-13T18:24:12.155Z,99737.08
2019-05-13T18:26:42.084Z,99737.91
2019-05-13T18:29:12.460Z,99730.88
2019-05-13T18:31:42.345Z,99741.92
2019-05-13T18:34:12.383Z,99743.44
2019-05-13T18:36:42.575Z,99743.59
2019-05-13T18:39:12.550Z,99742.05
2019-05-13T18:41:41.969Z,99742.14
2019-05-13T18:44:12.306Z,99743.41
2019-05-13T18:46:42.026Z,99737.45
2019-05-13T18:49:12.044Z,99744.43
2019-05-13T18:51:42.258Z,99745.80
2019-05-13T18:54:12.186Z,99745.30
2019-05-13T18:56:42.611Z,99750.89
2019-05-13T18:59:12.666Z,99748.11
2019-05-13T19:01:42.100Z,99750.35
2019-05-13T19:04:11.660Z,99752.67
2019-05-13T19:06:42.298Z,99752.13
2019-05-13T19:09:11.912Z,99755.98
2019-05-13T19:11:42.817Z,99759.66
2019-05-13T19:14:12.709Z,99760.95
2019-05-13T19:16:42.377Z,99761.05
2019-05-13T19:19:15.711Z,99770.22
2019-05-13T19:21:42.812Z,99763.53
2019-05-13T19:24:13.404Z,99765.78
2019-05-13T19:26:42.974Z,99772.61
2019-05-13T19:29:13.255Z,99770.13
2019-05-13T19:31:42.545Z,99765.78
2019-05-13T19:34:12.949Z,99763.95
2019-05-13T19:36:51.461Z,99770.53
2019-05-13T19:39:16.249Z,99768.26
2019-05-13T19:41:46.639Z,99766.70
2019-05-13T19:44:15.934Z,99766.31
2019-05-13T19:46:45.259Z,99762.72
2019-05-13T19:49:28.649Z,99765.01
2019-05-13T19:51:45.570Z,99758.83
2019-05-13T19:54:14.857Z,99756.41
2019-05-13T19:56:44.144Z,99751.05
2019-05-13T19:59:13.675Z,99751.67
2019-05-13T20:01:43.147Z,99755.38
2019-05-13T20:04:12.673Z,99757.70
2019-05-13T20:06:42.232Z,99748.08
2019-05-13T20:09:11.858Z,99757.20
2019-05-13T20:11:41.984Z,99756.61
2019-05-13T20:14:12.365Z,99759.98
2019-05-13T20:16:42.361Z,99758.73
2019-05-13T20:19:11.955Z,99753.88
2019-05-13T20:21:42.569Z,99751.26
2019-05-13T20:24:12.672Z,99756.24
2019-05-13T20:26:42.682Z,99756.41
2019-05-13T20:29:12.478Z,99754.48
2019-05-13T20:31:42.823Z,99741.07
2019-05-13T20:34:12.122Z,99745.84
2019-05-13T20:36:42.248Z,99742.91
2019-05-13T20:39:12.051Z,99747.70
2019-05-13T20:41:41.601Z,99742.36
2019-05-13T20:44:10.986Z,99740.44
2019-05-13T20:46:42.152Z,99741.73
2019-05-13T20:49:12.269Z,99744.56
2019-05-13T20:51:41.890Z,99738.20
2019-05-13T20:54:11.561Z,99735.11
2019-05-13T20:56:42.161Z,99733.14
2019-05-13T20:59:12.401Z,99735.97
2019-05-13T21:01:42.444Z,99734.91
2019-05-13T21:04:12.499Z,99739.08
2019-05-13T21:06:42.389Z,99741.90
2019-05-13T21:09:16.802Z,99735.05
2019-05-13T21:11:46.155Z,99734.83
2019-05-13T21:14:15.933Z,99732.80
2019-05-13T21:16:45.581Z,99732.32
2019-05-13T21:19:15.039Z,99727.84
2019-05-13T21:21:44.855Z,99718.20
2019-05-13T21:24:14.180Z,99719.79
2019-05-13T21:26:44.061Z,99718.77
2019-05-13T21:29:13.395Z,99722.14
2019-05-13T21:31:42.699Z,99717.13
2019-05-13T21:34:12.436Z,99716.87
2019-05-13T21:36:41.724Z,99724.07
2019-05-13T21:39:12.407Z,99717.69
2019-05-13T21:41:41.897Z,99715.34
2019-05-13T21:44:11.976Z,99715.42
2019-05-13T21:46:41.559Z,99715.12
2019-05-13T21:49:12.166Z,99716.75
2019-05-13T21:51:41.887Z,99713.77
2019-05-13T21:54:11.766Z,99714.56
2019-05-13T21:56:42.839Z,99705.97
2019-05-13T21:59:12.221Z,99709.88
2019-05-13T22:01:42.234Z,99698.58
2019-05-13T22:04:12.424Z,99714.23
2019-05-13T22:06:41.972Z,99707.02
2019-05-13T22:09:12.460Z,99701.34
2019-05-13T22:11:42.181Z,99700.02
2019-05-13T22:14:11.599Z,99700.55
2019-05-13T22:16:41.404Z,99697.56
2019-05-13T22:19:12.214Z,99693.92
2019-05-13T22:21:42.486Z,99691.42
2019-05-13T22:24:11.906Z,99685.91
2019-05-13T22:26:42.006Z,99683.25
2019-05-13T22:29:11.601Z,99680.86
2019-05-13T22:31:42.033Z,99679.78
2019-05-13T22:34:12.121Z,99683.98
2019-05-13T22:36:41.579Z,99685.98
2019-05-13T22:39:11.533Z,99684.76
2019-05-13T22:41:42.162Z,99685.39
2019-05-13T22:44:11.938Z,99678.84
2019-05-13T22:46:41.531Z,99675.08
2019-05-13T22:49:11.629Z,99673.98
2019-05-13T22:51:41.395Z,99672.54
2019-05-13T22:54:11.974Z,99669.64
2019-05-13T22:56:41.417Z,99667.06
2019-05-13T22:59:12.274Z,99667.17
2019-05-13T23:01:52.201Z,99657.23
2019-05-13T23:04:22.065Z,99665.00
2019-05-13T23:06:51.986Z,99659.14
2019-05-13T23:09:21.619Z,99653.13
2019-05-13T23:11:51.209Z,99654.59
2019-05-13T23:14:22.030Z,99649.38
2019-05-13T23:16:51.453Z,99651.80
2019-05-13T23:19:21.680Z,99645.33
2019-05-13T23:21:51.286Z,99650.90
2019-05-13T23:24:21.895Z,99652.58
2019-05-13T23:26:51.634Z,99655.88
2019-05-13T23:29:21.513Z,99645.56
2019-05-13T23:31:52.061Z,99648.66
2019-05-13T23:34:22.323Z,99648.84
2019-05-13T23:36:51.857Z,99640.81
2019-05-13T23:39:21.755Z,99644.86
2019-05-13T23:41:52.125Z,99645.19
2019-05-13T23:44:27.157Z,99639.69
2019-05-13T23:46:52.608Z,99637.55
2019-05-13T23:49:22.978Z,99636.56
2019-05-13T23:51:52.287Z,99637.12
2019-05-13T23:54:21.553Z,99634.11
2019-05-13T23:56:51.036Z,99628.98
2019-05-13T23:59:21.978Z,99625.72
